N222HL PAFA-PAJN
Flight info
| Callsign | N222HL |
|---|---|
| Flight time | N/A |
| Altitude | 41000 |
| Route | RDFLG J502 ORT Q902 IGSOM WOGUS Q902 SSR |
| Aircraft | CL60/M-SBDE1E2E3FGHIJ1J4J5J7M3RWXYZ/LB1V1D1 |
Departure
| Time | 2026-04-28 00:42 |
|---|---|
| Airport | Fairbanks International Airport (PAFA) |
Arrival
| Time | N/A |
|---|---|
| Airport | Juneau International Airport (PAJN) |
| Time | Latitude | Longitude | Altitude | Speed | Heading |
|---|---|---|---|---|---|
| 2026-04-28 00:18 | 64.81192 | -147.85039 | 441 ft | 0 kts | 217° |
| 2026-04-28 00:29 | 64.81194 | -147.85062 | 441 ft | 5 kts | 326° |
| 2026-04-28 00:30 | 64.81204 | -147.85063 | 441 ft | 0 kts | 27° |
| 2026-04-28 00:31 | 64.81208 | -147.85059 | 441 ft | 6 kts | 27° |
| 2026-04-28 00:31 | 64.81269 | -147.85112 | 441 ft | 13 kts | 310° |
| 2026-04-28 00:31 | 64.81332 | -147.85301 | 441 ft | 16 kts | 307° |
| 2026-04-28 00:31 | 64.81393 | -147.85484 | 441 ft | 13 kts | 307° |
| 2026-04-28 00:32 | 64.81458 | -147.85680 | 441 ft | 17 kts | 309° |
| 2026-04-28 00:32 | 64.81540 | -147.85916 | 441 ft | 20 kts | 308° |
| 2026-04-28 00:32 | 64.81624 | -147.86175 | 441 ft | 20 kts | 307° |
| 2026-04-28 00:32 | 64.81638 | -147.86394 | 441 ft | 14 kts | 219° |
| 2026-04-28 00:33 | 64.81541 | -147.86566 | 441 ft | 22 kts | 218° |
| 2026-04-28 00:33 | 64.81412 | -147.86803 | 441 ft | 25 kts | 219° |
| 2026-04-28 00:33 | 64.81267 | -147.87068 | 441 ft | 27 kts | 217° |
| 2026-04-28 00:33 | 64.81115 | -147.87352 | 442 ft | 28 kts | 217° |
| 2026-04-28 00:34 | 64.80956 | -147.87648 | 441 ft | 29 kts | 218° |
| 2026-04-28 00:34 | 64.80796 | -147.87941 | 441 ft | 28 kts | 218° |
| 2026-04-28 00:34 | 64.80648 | -147.88214 | 442 ft | 24 kts | 218° |
| 2026-04-28 00:34 | 64.80511 | -147.88463 | 442 ft | 25 kts | 218° |
| 2026-04-28 00:35 | 64.80402 | -147.88664 | 442 ft | 12 kts | 218° |
| 2026-04-28 00:35 | 64.80368 | -147.88719 | 441 ft | 0 kts | 200° |
| 2026-04-28 00:40 | 64.80367 | -147.88719 | 441 ft | 0 kts | 200° |
| 2026-04-28 00:40 | 64.80313 | -147.88683 | 442 ft | 12 kts | 125° |
| 2026-04-28 00:40 | 64.80321 | -147.88480 | 442 ft | 5 kts | 42° |
| 2026-04-28 00:40 | 64.80325 | -147.88472 | 442 ft | 0 kts | 38° |
| 2026-04-28 00:41 | 64.80465 | -147.88214 | 442 ft | 75 kts | 36° |
| 2026-04-28 00:42 | 64.81138 | -147.86986 | 537 ft | 157 kts | 39° |
| 2026-04-28 00:42 | 64.82009 | -147.85397 | 1496 ft | 165 kts | 40° |
| 2026-04-28 00:42 | 64.82726 | -147.83337 | 2569 ft | 174 kts | 73° |
| 2026-04-28 00:42 | 64.82769 | -147.80602 | 3791 ft | 180 kts | 112° |
| 2026-04-28 00:43 | 64.81972 | -147.78455 | 4899 ft | 197 kts | 146° |
| 2026-04-28 00:43 | 64.80632 | -147.76765 | 5592 ft | 238 kts | 153° |
| 2026-04-28 00:43 | 64.79128 | -147.75029 | 6737 ft | 255 kts | 153° |
| 2026-04-28 00:43 | 64.77537 | -147.73177 | 8080 ft | 263 kts | 154° |
| 2026-04-28 00:44 | 64.75932 | -147.71301 | 9528 ft | 267 kts | 155° |
| 2026-04-28 00:44 | 64.74290 | -147.69380 | 10884 ft | 272 kts | 155° |
| 2026-04-28 00:44 | 64.72591 | -147.67389 | 12166 ft | 279 kts | 155° |
| 2026-04-28 00:44 | 64.70882 | -147.65384 | 13396 ft | 284 kts | 155° |
| 2026-04-28 00:45 | 64.69126 | -147.63310 | 14557 ft | 290 kts | 153° |
| 2026-04-28 00:45 | 64.67537 | -147.60435 | 15653 ft | 299 kts | 132° |
| 2026-04-28 00:45 | 64.66372 | -147.56320 | 16703 ft | 309 kts | 123° |
| 2026-04-28 00:45 | 64.65266 | -147.52006 | 17753 ft | 315 kts | 123° |
| 2026-04-28 00:46 | 64.64125 | -147.47594 | 18812 ft | 320 kts | 123° |
| 2026-04-28 00:46 | 64.62981 | -147.43182 | 19820 ft | 325 kts | 123° |
| 2026-04-28 00:46 | 64.61806 | -147.38658 | 20814 ft | 330 kts | 123° |
| 2026-04-28 00:46 | 64.60620 | -147.34103 | 21748 ft | 335 kts | 124° |
| 2026-04-28 00:47 | 64.59401 | -147.29433 | 22668 ft | 339 kts | 124° |
| 2026-04-28 00:47 | 64.58157 | -147.24687 | 23475 ft | 347 kts | 124° |
| 2026-04-28 00:47 | 64.56895 | -147.19875 | 24349 ft | 352 kts | 124° |
| 2026-04-28 00:47 | 64.55611 | -147.14986 | 25174 ft | 358 kts | 125° |
| 2026-04-28 00:48 | 64.54312 | -147.10059 | 26066 ft | 359 kts | 125° |
| 2026-04-28 00:48 | 64.53024 | -147.05176 | 26901 ft | 362 kts | 125° |
| 2026-04-28 00:48 | 64.51695 | -147.00151 | 27646 ft | 365 kts | 126° |
| 2026-04-28 00:48 | 64.50369 | -146.95151 | 28333 ft | 369 kts | 126° |
| 2026-04-28 00:49 | 64.49006 | -146.90025 | 29027 ft | 372 kts | 126° |
| 2026-04-28 00:49 | 64.47637 | -146.84886 | 29676 ft | 375 kts | 126° |
| 2026-04-28 00:49 | 64.46261 | -146.79732 | 30273 ft | 379 kts | 126° |
| 2026-04-28 00:49 | 64.44840 | -146.74422 | 30880 ft | 382 kts | 126° |
| 2026-04-28 00:50 | 64.43403 | -146.69070 | 31397 ft | 385 kts | 126° |
| 2026-04-28 00:50 | 64.41981 | -146.63786 | 31837 ft | 389 kts | 126° |
| 2026-04-28 00:50 | 64.40520 | -146.58368 | 32289 ft | 393 kts | 126° |
| 2026-04-28 00:50 | 64.39070 | -146.53003 | 32687 ft | 397 kts | 126° |
| 2026-04-28 00:51 | 64.37594 | -146.47556 | 33076 ft | 400 kts | 126° |
| 2026-04-28 00:51 | 64.36121 | -146.42136 | 33444 ft | 403 kts | 126° |
| 2026-04-28 00:51 | 64.34611 | -146.36585 | 33808 ft | 404 kts | 126° |
| 2026-04-28 00:51 | 64.33114 | -146.31097 | 34202 ft | 404 kts | 127° |
| 2026-04-28 00:52 | 64.31588 | -146.25517 | 34631 ft | 403 kts | 127° |
| 2026-04-28 00:52 | 64.30088 | -146.20056 | 34983 ft | 402 kts | 128° |
| 2026-04-28 00:52 | 64.28576 | -146.14746 | 35271 ft | 402 kts | 128° |
| 2026-04-28 00:52 | 64.26990 | -146.09248 | 35465 ft | 407 kts | 128° |
| 2026-04-28 00:53 | 64.25384 | -146.03693 | 35509 ft | 416 kts | 128° |
| 2026-04-28 00:53 | 64.23772 | -145.98132 | 35611 ft | 422 kts | 128° |
| 2026-04-28 00:53 | 64.22134 | -145.92487 | 35769 ft | 426 kts | 128° |
| 2026-04-28 00:53 | 64.20489 | -145.86835 | 35964 ft | 428 kts | 128° |
| 2026-04-28 00:54 | 64.18844 | -145.81187 | 36171 ft | 429 kts | 128° |
| 2026-04-28 00:54 | 64.17172 | -145.75465 | 36352 ft | 431 kts | 128° |
| 2026-04-28 00:54 | 64.15503 | -145.69771 | 36509 ft | 434 kts | 128° |
| 2026-04-28 00:54 | 64.13808 | -145.64002 | 36688 ft | 436 kts | 128° |
| 2026-04-28 00:55 | 64.12093 | -145.58180 | 36858 ft | 439 kts | 128° |
| 2026-04-28 00:55 | 64.10365 | -145.52328 | 37020 ft | 441 kts | 127° |
| 2026-04-28 00:55 | 64.08669 | -145.46594 | 37175 ft | 443 kts | 127° |
| 2026-04-28 00:55 | 64.06918 | -145.40697 | 37321 ft | 445 kts | 127° |
| 2026-04-28 00:56 | 64.05180 | -145.34854 | 37454 ft | 447 kts | 128° |
| 2026-04-28 00:56 | 64.03421 | -145.28958 | 37588 ft | 449 kts | 128° |
| 2026-04-28 00:56 | 64.01657 | -145.23061 | 37729 ft | 450 kts | 128° |
| 2026-04-28 00:56 | 63.99917 | -145.17258 | 37853 ft | 451 kts | 128° |
| 2026-04-28 00:57 | 63.98127 | -145.11304 | 37952 ft | 453 kts | 128° |
| 2026-04-28 00:57 | 63.96338 | -145.05368 | 38063 ft | 455 kts | 128° |
| 2026-04-28 00:57 | 63.94559 | -144.99480 | 38170 ft | 456 kts | 128° |
| 2026-04-28 00:58 | 63.90932 | -144.87527 | 38358 ft | 459 kts | 128° |
| 2026-04-28 00:58 | 63.87240 | -144.75423 | 38575 ft | 462 kts | 128° |
| 2026-04-28 00:58 | 63.85400 | -144.69414 | 38712 ft | 463 kts | 128° |